Querinda Park, New Mexico
Current Conditions -  °F | °C
As of 12:35 AM on Sunday 23 Nov 2014 (Local Time) from KAXX Reporting Station
Overcast Overcast  
Wind Chill: 28°   Ceiling: 4000
Heat Index: 34°   Visibility: 10mi
Dew Point: 19°   Wind: 7mph
Humidity: 56%   Direction: 270°W
Pressure: 29.82"   Gusts: 17mph
Location:  36.7124°N, 105.403°W
Report Text: KAXX 230735Z AUTO 27006G15KT 10SM BKN040 OVC049 01/M07 A2982 RMK AO2 T00091070
Loading
Personal Weather Stations






























Interactive Weather Map New forecast layout! Learn more

10-Day Weather Forecast

Advertisements
Track Severe Weather on mobile